sensor_id;sensor_type;location;lat;lon;timestamp;P1;durP1;ratioP1;P2;durP2;ratioP2
75542;SDS011;64129;53.508;10.476;2023-02-18T00:00:14;14.30;;;3.17;;
75542;SDS011;64129;53.508;10.476;2023-02-18T00:02:43;12.77;;;2.22;;
75542;SDS011;64129;53.508;10.476;2023-02-18T00:05:10;12.35;;;2.35;;
75542;SDS011;64129;53.508;10.476;2023-02-18T00:07:37;10.05;;;2.50;;
75542;SDS011;64129;53.508;10.476;2023-02-18T00:10:07;15.30;;;1.98;;
75542;SDS011;64129;53.508;10.476;2023-02-18T00:12:36;11.98;;;2.30;;
75542;SDS011;64129;53.508;10.476;2023-02-18T00:15:03;14.43;;;1.85;;
75542;SDS011;64129;53.508;10.476;2023-02-18T00:17:30;9.18;;;2.33;;
75542;SDS011;64129;53.508;10.476;2023-02-18T00:19:56;9.93;;;1.52;;
75542;SDS011;64129;53.508;10.476;2023-02-18T00:22:23;13.98;;;2.05;;
75542;SDS011;64129;53.508;10.476;2023-02-18T00:24:50;15.73;;;2.95;;
75542;SDS011;64129;53.508;10.476;2023-02-18T00:27:17;10.75;;;1.63;;
75542;SDS011;64129;53.508;10.476;2023-02-18T00:29:44;14.80;;;1.92;;
75542;SDS011;64129;53.508;10.476;2023-02-18T00:32:10;13.55;;;2.20;;
75542;SDS011;64129;53.508;10.476;2023-02-18T00:34:37;9.95;;;2.28;;
75542;SDS011;64129;53.508;10.476;2023-02-18T00:37:03;12.27;;;2.15;;
75542;SDS011;64129;53.508;10.476;2023-02-18T00:39:30;11.38;;;2.30;;
75542;SDS011;64129;53.508;10.476;2023-02-18T00:41:57;10.15;;;1.67;;
75542;SDS011;64129;53.508;10.476;2023-02-18T00:44:24;10.00;;;1.92;;
75542;SDS011;64129;53.508;10.476;2023-02-18T00:46:51;15.23;;;2.28;;
75542;SDS011;64129;53.508;10.476;2023-02-18T00:49:18;9.82;;;2.00;;
75542;SDS011;64129;53.508;10.476;2023-02-18T00:51:45;10.85;;;2.47;;
75542;SDS011;64129;53.508;10.476;2023-02-18T00:54:11;12.68;;;2.17;;
75542;SDS011;64129;53.508;10.476;2023-02-18T00:56:38;11.65;;;1.85;;
75542;SDS011;64129;53.508;10.476;2023-02-18T00:59:04;12.38;;;1.50;;
75542;SDS011;64129;53.508;10.476;2023-02-18T01:01:31;12.27;;;2.63;;
75542;SDS011;64129;53.508;10.476;2023-02-18T01:03:57;12.10;;;1.45;;
75542;SDS011;64129;53.508;10.476;2023-02-18T01:06:24;12.27;;;1.80;;
75542;SDS011;64129;53.508;10.476;2023-02-18T01:08:51;14.25;;;2.03;;
75542;SDS011;64129;53.508;10.476;2023-02-18T01:11:17;10.98;;;2.80;;
75542;SDS011;64129;53.508;10.476;2023-02-18T01:13:44;10.02;;;2.42;;
75542;SDS011;64129;53.508;10.476;2023-02-18T01:16:11;11.30;;;1.98;;
75542;SDS011;64129;53.508;10.476;2023-02-18T01:18:37;16.77;;;2.17;;
75542;SDS011;64129;53.508;10.476;2023-02-18T01:21:05;8.40;;;1.52;;
75542;SDS011;64129;53.508;10.476;2023-02-18T01:23:35;15.75;;;2.08;;
75542;SDS011;64129;53.508;10.476;2023-02-18T01:26:03;15.43;;;1.85;;
75542;SDS011;64129;53.508;10.476;2023-02-18T01:28:30;12.27;;;3.20;;
75542;SDS011;64129;53.508;10.476;2023-02-18T01:30:57;8.18;;;2.10;;
75542;SDS011;64129;53.508;10.476;2023-02-18T01:33:24;15.20;;;2.53;;
75542;SDS011;64129;53.508;10.476;2023-02-18T01:35:51;7.60;;;1.88;;
75542;SDS011;64129;53.508;10.476;2023-02-18T01:38:18;10.32;;;2.00;;
75542;SDS011;64129;53.508;10.476;2023-02-18T01:40:49;9.70;;;1.88;;
75542;SDS011;64129;53.508;10.476;2023-02-18T01:43:19;11.50;;;2.17;;
75542;SDS011;64129;53.508;10.476;2023-02-18T01:48:28;16.60;;;2.05;;
75542;SDS011;64129;53.508;10.476;2023-02-18T01:51:10;15.25;;;1.75;;
75542;SDS011;64129;53.508;10.476;2023-02-18T01:54:02;18.92;;;2.55;;
75542;SDS011;64129;53.508;10.476;2023-02-18T01:59:09;15.32;;;2.42;;
75542;SDS011;64129;53.508;10.476;2023-02-18T02:01:40;10.30;;;1.80;;
75542;SDS011;64129;53.508;10.476;2023-02-18T02:04:09;13.90;;;2.20;;
75542;SDS011;64129;53.508;10.476;2023-02-18T02:06:36;9.35;;;1.23;;
75542;SDS011;64129;53.508;10.476;2023-02-18T02:09:03;10.82;;;1.60;;
75542;SDS011;64129;53.508;10.476;2023-02-18T02:14:35;15.50;;;2.40;;
75542;SDS011;64129;53.508;10.476;2023-02-18T02:17:37;9.07;;;1.77;;
75542;SDS011;64129;53.508;10.476;2023-02-18T02:23:16;10.88;;;2.60;;
75542;SDS011;64129;53.508;10.476;2023-02-18T02:28:47;20.15;;;2.25;;
75542;SDS011;64129;53.508;10.476;2023-02-18T02:31:36;13.80;;;2.72;;
75542;SDS011;64129;53.508;10.476;2023-02-18T02:40:19;8.10;;;1.67;;
75542;SDS011;64129;53.508;10.476;2023-02-18T02:45:51;16.20;;;2.03;;
75542;SDS011;64129;53.508;10.476;2023-02-18T02:48:28;10.23;;;1.50;;
75542;SDS011;64129;53.508;10.476;2023-02-18T02:56:33;9.00;;;1.45;;
75542;SDS011;64129;53.508;10.476;2023-02-18T02:59:00;7.38;;;1.42;;
75542;SDS011;64129;53.508;10.476;2023-02-18T03:07:13;6.13;;;1.40;;
75542;SDS011;64129;53.508;10.476;2023-02-18T03:09:55;12.18;;;1.50;;
75542;SDS011;64129;53.508;10.476;2023-02-18T03:18:07;11.98;;;1.95;;
75542;SDS011;64129;53.508;10.476;2023-02-18T03:20:38;9.75;;;1.65;;
75542;SDS011;64129;53.508;10.476;2023-02-18T03:23:13;10.35;;;1.40;;
75542;SDS011;64129;53.508;10.476;2023-02-18T03:25:44;6.00;;;1.10;;
75542;SDS011;64129;53.508;10.476;2023-02-18T03:28:12;7.22;;;1.20;;
75542;SDS011;64129;53.508;10.476;2023-02-18T03:30:44;7.82;;;1.75;;
75542;SDS011;64129;53.508;10.476;2023-02-18T03:35:45;20.48;;;1.60;;
75542;SDS011;64129;53.508;10.476;2023-02-18T03:40:49;14.07;;;1.77;;
75542;SDS011;64129;53.508;10.476;2023-02-18T03:43:16;7.53;;;1.13;;
75542;SDS011;64129;53.508;10.476;2023-02-18T03:45:43;11.05;;;1.92;;
75542;SDS011;64129;53.508;10.476;2023-02-18T03:48:10;6.05;;;1.05;;
75542;SDS011;64129;53.508;10.476;2023-02-18T03:50:36;8.38;;;1.35;;
75542;SDS011;64129;53.508;10.476;2023-02-18T03:53:03;8.15;;;1.50;;
75542;SDS011;64129;53.508;10.476;2023-02-18T03:55:29;10.35;;;1.45;;
75542;SDS011;64129;53.508;10.476;2023-02-18T03:57:56;7.75;;;1.40;;
75542;SDS011;64129;53.508;10.476;2023-02-18T04:00:22;3.03;;;0.50;;
75542;SDS011;64129;53.508;10.476;2023-02-18T04:02:49;11.18;;;1.70;;
75542;SDS011;64129;53.508;10.476;2023-02-18T04:05:15;4.20;;;1.15;;
75542;SDS011;64129;53.508;10.476;2023-02-18T04:07:42;8.32;;;1.60;;
75542;SDS011;64129;53.508;10.476;2023-02-18T04:10:09;9.98;;;1.20;;
75542;SDS011;64129;53.508;10.476;2023-02-18T04:12:36;7.20;;;1.50;;
75542;SDS011;64129;53.508;10.476;2023-02-18T04:15:02;8.65;;;1.20;;
75542;SDS011;64129;53.508;10.476;2023-02-18T04:17:29;5.07;;;0.90;;
75542;SDS011;64129;53.508;10.476;2023-02-18T04:19:57;6.22;;;1.30;;
75542;SDS011;64129;53.508;10.476;2023-02-18T04:22:24;12.35;;;1.73;;
75542;SDS011;64129;53.508;10.476;2023-02-18T04:24:51;5.55;;;1.38;;
75542;SDS011;64129;53.508;10.476;2023-02-18T04:27:17;7.55;;;1.50;;
75542;SDS011;64129;53.508;10.476;2023-02-18T04:29:44;6.50;;;0.90;;
75542;SDS011;64129;53.508;10.476;2023-02-18T04:32:10;12.45;;;1.25;;
75542;SDS011;64129;53.508;10.476;2023-02-18T04:34:37;4.20;;;0.98;;
75542;SDS011;64129;53.508;10.476;2023-02-18T04:37:03;5.18;;;1.40;;
75542;SDS011;64129;53.508;10.476;2023-02-18T04:39:30;4.75;;;1.45;;
75542;SDS011;64129;53.508;10.476;2023-02-18T04:41:56;6.95;;;1.20;;
75542;SDS011;64129;53.508;10.476;2023-02-18T04:44:23;7.35;;;1.50;;
75542;SDS011;64129;53.508;10.476;2023-02-18T04:46:49;4.20;;;0.98;;
75542;SDS011;64129;53.508;10.476;2023-02-18T04:49:16;9.57;;;1.52;;
75542;SDS011;64129;53.508;10.476;2023-02-18T04:51:42;8.77;;;1.23;;
75542;SDS011;64129;53.508;10.476;2023-02-18T04:54:09;7.15;;;1.50;;
75542;SDS011;64129;53.508;10.476;2023-02-18T04:56:35;3.28;;;0.82;;
75542;SDS011;64129;53.508;10.476;2023-02-18T04:59:02;9.65;;;1.25;;
75542;SDS011;64129;53.508;10.476;2023-02-18T05:01:28;5.57;;;1.00;;
75542;SDS011;64129;53.508;10.476;2023-02-18T05:03:55;7.90;;;1.90;;
75542;SDS011;64129;53.508;10.476;2023-02-18T05:06:21;4.00;;;0.55;;
75542;SDS011;64129;53.508;10.476;2023-02-18T05:08:48;3.95;;;0.80;;
75542;SDS011;64129;53.508;10.476;2023-02-18T05:11:14;5.25;;;0.90;;
75542;SDS011;64129;53.508;10.476;2023-02-18T05:13:41;9.32;;;1.08;;
75542;SDS011;64129;53.508;10.476;2023-02-18T05:16:07;8.07;;;0.93;;
75542;SDS011;64129;53.508;10.476;2023-02-18T05:18:34;8.25;;;1.38;;
75542;SDS011;64129;53.508;10.476;2023-02-18T05:21:00;4.93;;;1.92;;
75542;SDS011;64129;53.508;10.476;2023-02-18T05:23:27;7.90;;;1.00;;
75542;SDS011;64129;53.508;10.476;2023-02-18T05:25:54;5.57;;;0.93;;
75542;SDS011;64129;53.508;10.476;2023-02-18T05:28:20;8.90;;;1.38;;
75542;SDS011;64129;53.508;10.476;2023-02-18T05:30:47;4.70;;;1.17;;
75542;SDS011;64129;53.508;10.476;2023-02-18T05:33:13;9.02;;;1.35;;
75542;SDS011;64129;53.508;10.476;2023-02-18T05:35:40;9.38;;;1.50;;
75542;SDS011;64129;53.508;10.476;2023-02-18T05:38:06;10.43;;;1.13;;
75542;SDS011;64129;53.508;10.476;2023-02-18T05:40:33;6.80;;;1.15;;
75542;SDS011;64129;53.508;10.476;2023-02-18T05:42:59;7.50;;;1.50;;
75542;SDS011;64129;53.508;10.476;2023-02-18T05:45:26;4.60;;;0.80;;
75542;SDS011;64129;53.508;10.476;2023-02-18T05:47:52;8.82;;;1.10;;
75542;SDS011;64129;53.508;10.476;2023-02-18T05:50:19;5.78;;;0.90;;
75542;SDS011;64129;53.508;10.476;2023-02-18T05:52:45;8.02;;;0.90;;
75542;SDS011;64129;53.508;10.476;2023-02-18T05:55:12;10.10;;;1.67;;
75542;SDS011;64129;53.508;10.476;2023-02-18T05:57:38;6.93;;;1.23;;
75542;SDS011;64129;53.508;10.476;2023-02-18T06:00:05;6.70;;;1.13;;
75542;SDS011;64129;53.508;10.476;2023-02-18T06:02:35;5.70;;;1.10;;
75542;SDS011;64129;53.508;10.476;2023-02-18T06:05:02;5.15;;;1.00;;
75542;SDS011;64129;53.508;10.476;2023-02-18T06:07:29;7.13;;;1.10;;
75542;SDS011;64129;53.508;10.476;2023-02-18T06:09:55;7.53;;;1.20;;
75542;SDS011;64129;53.508;10.476;2023-02-18T06:12:22;6.82;;;0.95;;
75542;SDS011;64129;53.508;10.476;2023-02-18T06:14:49;7.10;;;1.20;;
75542;SDS011;64129;53.508;10.476;2023-02-18T06:17:15;5.82;;;0.95;;
75542;SDS011;64129;53.508;10.476;2023-02-18T06:19:44;6.43;;;1.10;;
75542;SDS011;64129;53.508;10.476;2023-02-18T06:22:11;12.27;;;1.55;;
75542;SDS011;64129;53.508;10.476;2023-02-18T06:24:37;5.65;;;1.63;;
75542;SDS011;64129;53.508;10.476;2023-02-18T06:27:04;5.32;;;1.45;;
75542;SDS011;64129;53.508;10.476;2023-02-18T06:29:30;5.13;;;1.15;;
75542;SDS011;64129;53.508;10.476;2023-02-18T06:31:57;5.03;;;0.90;;
75542;SDS011;64129;53.508;10.476;2023-02-18T06:34:25;10.75;;;1.45;;
75542;SDS011;64129;53.508;10.476;2023-02-18T06:36:52;7.43;;;1.30;;
75542;SDS011;64129;53.508;10.476;2023-02-18T06:39:18;4.40;;;0.93;;
75542;SDS011;64129;53.508;10.476;2023-02-18T06:41:45;5.75;;;1.13;;
75542;SDS011;64129;53.508;10.476;2023-02-18T06:44:11;4.93;;;1.10;;
75542;SDS011;64129;53.508;10.476;2023-02-18T06:46:40;5.13;;;0.70;;
75542;SDS011;64129;53.508;10.476;2023-02-18T06:49:07;4.60;;;0.85;;
75542;SDS011;64129;53.508;10.476;2023-02-18T06:51:33;7.05;;;1.63;;
75542;SDS011;64129;53.508;10.476;2023-02-18T06:53:59;5.50;;;1.40;;
75542;SDS011;64129;53.508;10.476;2023-02-18T06:56:26;7.72;;;1.52;;
75542;SDS011;64129;53.508;10.476;2023-02-18T06:58:53;6.35;;;1.02;;
75542;SDS011;64129;53.508;10.476;2023-02-18T07:01:20;5.90;;;1.38;;
75542;SDS011;64129;53.508;10.476;2023-02-18T07:03:46;7.78;;;1.10;;
75542;SDS011;64129;53.508;10.476;2023-02-18T07:06:15;5.30;;;1.10;;
75542;SDS011;64129;53.508;10.476;2023-02-18T07:08:41;5.80;;;1.45;;
75542;SDS011;64129;53.508;10.476;2023-02-18T07:11:08;5.40;;;1.13;;
75542;SDS011;64129;53.508;10.476;2023-02-18T07:13:34;7.13;;;1.35;;
75542;SDS011;64129;53.508;10.476;2023-02-18T07:16:01;6.70;;;1.30;;
75542;SDS011;64129;53.508;10.476;2023-02-18T07:18:27;12.88;;;1.15;;
75542;SDS011;64129;53.508;10.476;2023-02-18T07:20:54;5.07;;;1.65;;
75542;SDS011;64129;53.508;10.476;2023-02-18T07:23:20;7.57;;;1.80;;
75542;SDS011;64129;53.508;10.476;2023-02-18T07:25:47;8.23;;;1.27;;
75542;SDS011;64129;53.508;10.476;2023-02-18T07:28:13;4.55;;;1.08;;
75542;SDS011;64129;53.508;10.476;2023-02-18T07:30:40;4.25;;;1.08;;
75542;SDS011;64129;53.508;10.476;2023-02-18T07:33:06;7.93;;;2.25;;
75542;SDS011;64129;53.508;10.476;2023-02-18T07:35:33;6.60;;;1.05;;
75542;SDS011;64129;53.508;10.476;2023-02-18T07:37:59;5.30;;;1.30;;
75542;SDS011;64129;53.508;10.476;2023-02-18T07:40:28;8.43;;;1.30;;
75542;SDS011;64129;53.508;10.476;2023-02-18T07:42:54;7.15;;;1.67;;
75542;SDS011;64129;53.508;10.476;2023-02-18T07:45:21;3.15;;;1.20;;
75542;SDS011;64129;53.508;10.476;2023-02-18T07:47:48;5.82;;;1.20;;
75542;SDS011;64129;53.508;10.476;2023-02-18T07:50:15;7.22;;;1.33;;
75542;SDS011;64129;53.508;10.476;2023-02-18T07:52:41;9.73;;;1.90;;
75542;SDS011;64129;53.508;10.476;2023-02-18T07:55:08;9.20;;;1.85;;
75542;SDS011;64129;53.508;10.476;2023-02-18T07:57:34;6.68;;;1.50;;
75542;SDS011;64129;53.508;10.476;2023-02-18T08:02:47;5.30;;;1.00;;
75542;SDS011;64129;53.508;10.476;2023-02-18T08:05:14;6.03;;;1.42;;
75542;SDS011;64129;53.508;10.476;2023-02-18T08:07:40;4.45;;;1.17;;
75542;SDS011;64129;53.508;10.476;2023-02-18T08:10:07;6.18;;;1.58;;
75542;SDS011;64129;53.508;10.476;2023-02-18T08:12:33;4.45;;;1.30;;
75542;SDS011;64129;53.508;10.476;2023-02-18T08:15:00;8.02;;;1.60;;
75542;SDS011;64129;53.508;10.476;2023-02-18T08:17:26;5.28;;;1.05;;
75542;SDS011;64129;53.508;10.476;2023-02-18T08:19:53;8.75;;;1.55;;
75542;SDS011;64129;53.508;10.476;2023-02-18T08:22:19;4.75;;;1.30;;
75542;SDS011;64129;53.508;10.476;2023-02-18T08:24:46;8.35;;;1.42;;
75542;SDS011;64129;53.508;10.476;2023-02-18T08:27:12;6.13;;;1.00;;
75542;SDS011;64129;53.508;10.476;2023-02-18T08:29:39;8.75;;;1.30;;
75542;SDS011;64129;53.508;10.476;2023-02-18T08:32:06;7.82;;;1.85;;
75542;SDS011;64129;53.508;10.476;2023-02-18T08:34:32;5.30;;;1.40;;
75542;SDS011;64129;53.508;10.476;2023-02-18T08:37:00;7.38;;;1.50;;
75542;SDS011;64129;53.508;10.476;2023-02-18T08:41:53;8.30;;;1.58;;
75542;SDS011;64129;53.508;10.476;2023-02-18T08:44:22;11.73;;;1.60;;
75542;SDS011;64129;53.508;10.476;2023-02-18T08:46:48;9.05;;;1.63;;
75542;SDS011;64129;53.508;10.476;2023-02-18T08:49:15;6.30;;;2.03;;
75542;SDS011;64129;53.508;10.476;2023-02-18T08:51:42;7.05;;;1.70;;
75542;SDS011;64129;53.508;10.476;2023-02-18T08:54:08;9.52;;;1.67;;
75542;SDS011;64129;53.508;10.476;2023-02-18T08:56:35;4.05;;;1.65;;
75542;SDS011;64129;53.508;10.476;2023-02-18T08:59:01;6.22;;;1.42;;
75542;SDS011;64129;53.508;10.476;2023-02-18T09:01:28;10.52;;;1.83;;
75542;SDS011;64129;53.508;10.476;2023-02-18T09:03:54;8.73;;;2.42;;
75542;SDS011;64129;53.508;10.476;2023-02-18T09:06:21;5.55;;;1.40;;
75542;SDS011;64129;53.508;10.476;2023-02-18T09:08:48;7.10;;;1.55;;
75542;SDS011;64129;53.508;10.476;2023-02-18T09:11:15;8.65;;;1.67;;
75542;SDS011;64129;53.508;10.476;2023-02-18T09:13:42;5.68;;;1.77;;
75542;SDS011;64129;53.508;10.476;2023-02-18T09:16:16;5.20;;;1.25;;
75542;SDS011;64129;53.508;10.476;2023-02-18T09:18:43;6.65;;;2.25;;
75542;SDS011;64129;53.508;10.476;2023-02-18T09:21:11;6.28;;;1.85;;
75542;SDS011;64129;53.508;10.476;2023-02-18T09:23:39;6.07;;;1.50;;
75542;SDS011;64129;53.508;10.476;2023-02-18T09:26:06;10.98;;;2.00;;
75542;SDS011;64129;53.508;10.476;2023-02-18T09:28:37;8.38;;;1.80;;
75542;SDS011;64129;53.508;10.476;2023-02-18T09:31:04;8.35;;;1.92;;
75542;SDS011;64129;53.508;10.476;2023-02-18T09:33:34;12.70;;;2.08;;
75542;SDS011;64129;53.508;10.476;2023-02-18T09:36:02;6.60;;;1.63;;
75542;SDS011;64129;53.508;10.476;2023-02-18T09:38:29;5.15;;;1.40;;
75542;SDS011;64129;53.508;10.476;2023-02-18T09:40:55;4.03;;;1.40;;
75542;SDS011;64129;53.508;10.476;2023-02-18T09:43:28;4.43;;;1.40;;
75542;SDS011;64129;53.508;10.476;2023-02-18T09:46:00;2.83;;;1.30;;
75542;SDS011;64129;53.508;10.476;2023-02-18T09:48:30;2.22;;;1.40;;
75542;SDS011;64129;53.508;10.476;2023-02-18T09:50:58;4.68;;;1.52;;
75542;SDS011;64129;53.508;10.476;2023-02-18T09:53:25;8.18;;;1.88;;
75542;SDS011;64129;53.508;10.476;2023-02-18T09:55:53;3.50;;;1.45;;
75542;SDS011;64129;53.508;10.476;2023-02-18T09:58:29;2.45;;;1.25;;
75542;SDS011;64129;53.508;10.476;2023-02-18T10:03:46;5.30;;;2.30;;
75542;SDS011;64129;53.508;10.476;2023-02-18T10:06:29;5.30;;;1.92;;
75542;SDS011;64129;53.508;10.476;2023-02-18T10:08:59;4.07;;;1.70;;
75542;SDS011;64129;53.508;10.476;2023-02-18T10:11:30;5.05;;;1.42;;
75542;SDS011;64129;53.508;10.476;2023-02-18T10:14:05;3.55;;;1.60;;
75542;SDS011;64129;53.508;10.476;2023-02-18T10:16:36;3.90;;;1.60;;
75542;SDS011;64129;53.508;10.476;2023-02-18T10:19:04;5.15;;;1.50;;
75542;SDS011;64129;53.508;10.476;2023-02-18T10:21:54;1.83;;;1.17;;
75542;SDS011;64129;53.508;10.476;2023-02-18T10:24:26;5.28;;;1.58;;
75542;SDS011;64129;53.508;10.476;2023-02-18T10:26:57;4.60;;;1.52;;
75542;SDS011;64129;53.508;10.476;2023-02-18T10:29:24;2.03;;;1.50;;
75542;SDS011;64129;53.508;10.476;2023-02-18T10:32:03;3.42;;;1.75;;
75542;SDS011;64129;53.508;10.476;2023-02-18T10:34:42;2.08;;;1.35;;
75542;SDS011;64129;53.508;10.476;2023-02-18T10:40:11;1.20;;;1.10;;
75542;SDS011;64129;53.508;10.476;2023-02-18T10:45:55;3.90;;;1.63;;
75542;SDS011;64129;53.508;10.476;2023-02-18T10:51:22;2.60;;;1.40;;
75542;SDS011;64129;53.508;10.476;2023-02-18T10:53:52;1.50;;;1.20;;
75542;SDS011;64129;53.508;10.476;2023-02-18T10:56:32;1.63;;;1.13;;
75542;SDS011;64129;53.508;10.476;2023-02-18T10:59:04;1.77;;;1.50;;
75542;SDS011;64129;53.508;10.476;2023-02-18T11:01:36;2.55;;;2.25;;
75542;SDS011;64129;53.508;10.476;2023-02-18T11:04:06;3.38;;;2.47;;
75542;SDS011;64129;53.508;10.476;2023-02-18T11:06:39;4.18;;;2.17;;
75542;SDS011;64129;53.508;10.476;2023-02-18T11:09:18;3.95;;;2.10;;
75542;SDS011;64129;53.508;10.476;2023-02-18T11:12:04;6.03;;;3.45;;
75542;SDS011;64129;53.508;10.476;2023-02-18T11:14:39;8.73;;;3.88;;
75542;SDS011;64129;53.508;10.476;2023-02-18T11:17:13;4.57;;;2.60;;
75542;SDS011;64129;53.508;10.476;2023-02-18T11:19:50;5.90;;;3.22;;
75542;SDS011;64129;53.508;10.476;2023-02-18T11:24:55;2.88;;;2.22;;
75542;SDS011;64129;53.508;10.476;2023-02-18T11:27:37;2.88;;;2.03;;
75542;SDS011;64129;53.508;10.476;2023-02-18T11:30:19;5.43;;;3.75;;
75542;SDS011;64129;53.508;10.476;2023-02-18T11:32:49;5.43;;;3.67;;
75542;SDS011;64129;53.508;10.476;2023-02-18T11:35:24;4.30;;;3.17;;
75542;SDS011;64129;53.508;10.476;2023-02-18T11:37:55;5.50;;;3.80;;
75542;SDS011;64129;53.508;10.476;2023-02-18T11:40:24;5.10;;;3.78;;
75542;SDS011;64129;53.508;10.476;2023-02-18T11:43:03;3.80;;;3.22;;
75542;SDS011;64129;53.508;10.476;2023-02-18T11:45:32;2.50;;;1.90;;
75542;SDS011;64129;53.508;10.476;2023-02-18T11:50:32;3.78;;;3.20;;
75542;SDS011;64129;53.508;10.476;2023-02-18T11:53:00;8.35;;;5.47;;
75542;SDS011;64129;53.508;10.476;2023-02-18T11:55:52;5.68;;;4.43;;
75542;SDS011;64129;53.508;10.476;2023-02-18T11:58:21;17.45;;;12.05;;
75542;SDS011;64129;53.508;10.476;2023-02-18T12:00:48;17.58;;;10.88;;
75542;SDS011;64129;53.508;10.476;2023-02-18T12:06:15;5.43;;;4.57;;
75542;SDS011;64129;53.508;10.476;2023-02-18T12:08:53;4.93;;;3.47;;
75542;SDS011;64129;53.508;10.476;2023-02-18T12:11:26;3.25;;;2.30;;
75542;SDS011;64129;53.508;10.476;2023-02-18T12:13:57;3.95;;;2.80;;
75542;SDS011;64129;53.508;10.476;2023-02-18T12:19:08;2.10;;;1.88;;
75542;SDS011;64129;53.508;10.476;2023-02-18T12:21:55;1.65;;;1.27;;
75542;SDS011;64129;53.508;10.476;2023-02-18T12:24:40;3.22;;;1.40;;
75542;SDS011;64129;53.508;10.476;2023-02-18T12:27:19;2.45;;;1.10;;
75542;SDS011;64129;53.508;10.476;2023-02-18T12:29:58;1.55;;;0.95;;
75542;SDS011;64129;53.508;10.476;2023-02-18T12:35:40;1.27;;;1.10;;
75542;SDS011;64129;53.508;10.476;2023-02-18T12:38:24;1.23;;;0.95;;
75542;SDS011;64129;53.508;10.476;2023-02-18T12:49:51;1.45;;;1.05;;
75542;SDS011;64129;53.508;10.476;2023-02-18T12:52:48;0.80;;;0.50;;
75542;SDS011;64129;53.508;10.476;2023-02-18T13:09:56;2.97;;;0.90;;
75542;SDS011;64129;53.508;10.476;2023-02-18T13:15:41;1.08;;;0.43;;
75542;SDS011;64129;53.508;10.476;2023-02-18T13:18:12;1.88;;;0.63;;
75542;SDS011;64129;53.508;10.476;2023-02-18T13:20:46;2.25;;;0.45;;
75542;SDS011;64129;53.508;10.476;2023-02-18T13:23:17;1.38;;;0.50;;
75542;SDS011;64129;53.508;10.476;2023-02-18T13:25:48;1.30;;;0.50;;
75542;SDS011;64129;53.508;10.476;2023-02-18T13:34:26;2.70;;;0.90;;
75542;SDS011;64129;53.508;10.476;2023-02-18T13:37:00;1.02;;;0.68;;
75542;SDS011;64129;53.508;10.476;2023-02-18T13:39:30;2.33;;;0.80;;
75542;SDS011;64129;53.508;10.476;2023-02-18T13:45:01;2.97;;;0.80;;
75542;SDS011;64129;53.508;10.476;2023-02-18T13:48:02;1.73;;;0.73;;
75542;SDS011;64129;53.508;10.476;2023-02-18T13:53:10;5.10;;;1.20;;
75542;SDS011;64129;53.508;10.476;2023-02-18T13:55:44;5.07;;;1.75;;
75542;SDS011;64129;53.508;10.476;2023-02-18T13:58:29;1.05;;;0.40;;
75542;SDS011;64129;53.508;10.476;2023-02-18T14:01:01;4.30;;;1.17;;
75542;SDS011;64129;53.508;10.476;2023-02-18T14:06:16;4.28;;;0.95;;
75542;SDS011;64129;53.508;10.476;2023-02-18T14:08:51;6.10;;;1.00;;
75542;SDS011;64129;53.508;10.476;2023-02-18T14:11:40;1.75;;;0.73;;
75542;SDS011;64129;53.508;10.476;2023-02-18T14:19:53;2.33;;;1.70;;
75542;SDS011;64129;53.508;10.476;2023-02-18T14:27:35;2.70;;;1.60;;
75542;SDS011;64129;53.508;10.476;2023-02-18T14:30:07;2.00;;;1.77;;
75542;SDS011;64129;53.508;10.476;2023-02-18T14:32:43;2.83;;;1.65;;
75542;SDS011;64129;53.508;10.476;2023-02-18T14:35:19;2.00;;;1.38;;
75542;SDS011;64129;53.508;10.476;2023-02-18T14:40:57;2.15;;;1.40;;
75542;SDS011;64129;53.508;10.476;2023-02-18T14:43:47;4.30;;;1.38;;
75542;SDS011;64129;53.508;10.476;2023-02-18T14:46:31;4.28;;;1.50;;
75542;SDS011;64129;53.508;10.476;2023-02-18T14:52:04;3.42;;;1.10;;
75542;SDS011;64129;53.508;10.476;2023-02-18T14:54:36;2.35;;;1.17;;
75542;SDS011;64129;53.508;10.476;2023-02-18T14:57:13;2.65;;;0.93;;
75542;SDS011;64129;53.508;10.476;2023-02-18T14:59:43;1.70;;;1.17;;
75542;SDS011;64129;53.508;10.476;2023-02-18T15:02:22;1.30;;;1.02;;
75542;SDS011;64129;53.508;10.476;2023-02-18T15:04:52;1.83;;;0.70;;
75542;SDS011;64129;53.508;10.476;2023-02-18T15:07:20;1.98;;;1.05;;
75542;SDS011;64129;53.508;10.476;2023-02-18T15:09:53;1.13;;;0.68;;
75542;SDS011;64129;53.508;10.476;2023-02-18T15:12:21;1.10;;;0.60;;
75542;SDS011;64129;53.508;10.476;2023-02-18T15:14:51;1.30;;;0.70;;
75542;SDS011;64129;53.508;10.476;2023-02-18T15:17:24;0.55;;;0.50;;
75542;SDS011;64129;53.508;10.476;2023-02-18T15:19:56;0.70;;;0.50;;
75542;SDS011;64129;53.508;10.476;2023-02-18T15:22:30;1.35;;;0.70;;
75542;SDS011;64129;53.508;10.476;2023-02-18T15:25:00;0.55;;;0.32;;
75542;SDS011;64129;53.508;10.476;2023-02-18T15:27:28;1.63;;;0.60;;
75542;SDS011;64129;53.508;10.476;2023-02-18T15:30:39;1.38;;;0.82;;
75542;SDS011;64129;53.508;10.476;2023-02-18T15:32:53;0.50;;;0.32;;
75542;SDS011;64129;53.508;10.476;2023-02-18T15:35:22;0.85;;;0.75;;
75542;SDS011;64129;53.508;10.476;2023-02-18T15:37:56;1.60;;;0.82;;
75542;SDS011;64129;53.508;10.476;2023-02-18T15:40:31;0.70;;;0.70;;
75542;SDS011;64129;53.508;10.476;2023-02-18T15:43:01;1.20;;;0.98;;
75542;SDS011;64129;53.508;10.476;2023-02-18T15:45:34;1.17;;;0.98;;
75542;SDS011;64129;53.508;10.476;2023-02-18T15:48:03;0.80;;;0.73;;
75542;SDS011;64129;53.508;10.476;2023-02-18T15:50:32;0.70;;;0.70;;
75542;SDS011;64129;53.508;10.476;2023-02-18T15:53:05;1.08;;;0.63;;
75542;SDS011;64129;53.508;10.476;2023-02-18T15:55:35;0.52;;;0.52;;
75542;SDS011;64129;53.508;10.476;2023-02-18T15:58:08;1.08;;;0.60;;
75542;SDS011;64129;53.508;10.476;2023-02-18T16:00:46;3.70;;;1.10;;
75542;SDS011;64129;53.508;10.476;2023-02-18T16:03:18;1.88;;;1.17;;
75542;SDS011;64129;53.508;10.476;2023-02-18T16:08:35;3.10;;;1.02;;
75542;SDS011;64129;53.508;10.476;2023-02-18T16:11:03;1.15;;;1.00;;
75542;SDS011;64129;53.508;10.476;2023-02-18T16:13:34;1.73;;;1.52;;
75542;SDS011;64129;53.508;10.476;2023-02-18T16:16:22;4.15;;;2.63;;
75542;SDS011;64129;53.508;10.476;2023-02-18T16:18:57;4.50;;;3.10;;
75542;SDS011;64129;53.508;10.476;2023-02-18T16:21:29;3.88;;;3.03;;
75542;SDS011;64129;53.508;10.476;2023-02-18T16:24:29;3.05;;;2.40;;
75542;SDS011;64129;53.508;10.476;2023-02-18T16:26:58;3.15;;;2.50;;
75542;SDS011;64129;53.508;10.476;2023-02-18T16:29:32;1.63;;;1.50;;
75542;SDS011;64129;53.508;10.476;2023-02-18T16:32:06;2.63;;;1.73;;
75542;SDS011;64129;53.508;10.476;2023-02-18T16:34:32;1.73;;;1.10;;
75542;SDS011;64129;53.508;10.476;2023-02-18T16:37:01;1.13;;;0.70;;
75542;SDS011;64129;53.508;10.476;2023-02-18T16:39:48;1.83;;;1.00;;
75542;SDS011;64129;53.508;10.476;2023-02-18T16:42:17;1.83;;;0.80;;
75542;SDS011;64129;53.508;10.476;2023-02-18T16:44:43;1.55;;;0.98;;
75542;SDS011;64129;53.508;10.476;2023-02-18T16:47:10;1.23;;;0.90;;
75542;SDS011;64129;53.508;10.476;2023-02-18T16:49:42;1.10;;;1.00;;
75542;SDS011;64129;53.508;10.476;2023-02-18T16:52:11;0.80;;;0.73;;
75542;SDS011;64129;53.508;10.476;2023-02-18T16:54:42;1.80;;;0.70;;
75542;SDS011;64129;53.508;10.476;2023-02-18T16:57:09;1.00;;;0.85;;
75542;SDS011;64129;53.508;10.476;2023-02-18T16:59:36;1.92;;;1.25;;
75542;SDS011;64129;53.508;10.476;2023-02-18T17:02:02;1.10;;;1.00;;
75542;SDS011;64129;53.508;10.476;2023-02-18T17:04:29;1.45;;;1.30;;